createdAt,value
2023-04-18T00:01:00.323Z,8.30
2023-04-18T00:04:42.289Z,8.20
2023-04-18T00:08:24.237Z,8.10
2023-04-18T00:12:06.629Z,8.00
2023-04-18T00:15:48.566Z,7.90
2023-04-18T00:19:30.645Z,7.80
2023-04-18T00:23:14.029Z,7.70
2023-04-18T00:26:57.156Z,7.60
2023-04-18T00:30:39.068Z,7.50
2023-04-18T00:34:20.915Z,7.40
2023-04-18T00:38:02.799Z,7.30
2023-04-18T00:41:44.621Z,7.30
2023-04-18T00:45:26.498Z,7.20
2023-04-18T00:49:08.598Z,7.10
2023-04-18T00:52:50.912Z,7.10
2023-04-18T00:56:32.909Z,7.00
2023-04-18T01:00:15.240Z,6.90
2023-04-18T01:03:57.165Z,6.80
2023-04-18T01:07:41.739Z,6.80
2023-04-18T01:11:23.772Z,6.70
2023-04-18T01:15:06.324Z,6.60
2023-04-18T01:18:48.643Z,6.60
2023-04-18T01:22:31.603Z,6.50
2023-04-18T01:26:13.551Z,6.50
2023-04-18T01:29:55.396Z,6.40
2023-04-18T01:33:37.555Z,6.40
2023-04-18T01:37:19.393Z,6.40
2023-04-18T01:41:02.293Z,6.50
2023-04-18T01:44:44.210Z,6.70
2023-04-18T01:48:26.145Z,6.80
2023-04-18T01:52:08.067Z,6.90
2023-04-18T01:55:50.567Z,6.90
2023-04-18T01:59:32.427Z,7.10
2023-04-18T02:03:14.470Z,7.10
2023-04-18T02:06:56.432Z,7.20
2023-04-18T02:10:38.602Z,7.30
2023-04-18T02:14:20.443Z,7.30
2023-04-18T02:18:02.956Z,7.40
2023-04-18T02:21:44.976Z,7.50
2023-04-18T02:25:28.778Z,7.50
2023-04-18T02:29:10.890Z,7.60
2023-04-18T02:32:58.827Z,7.60
2023-04-18T02:36:40.872Z,7.60
2023-04-18T02:40:22.813Z,7.60
2023-04-18T02:44:04.863Z,7.70
2023-04-18T02:47:55.154Z,7.80
2023-04-18T02:51:38.434Z,7.90
2023-04-18T02:55:21.945Z,7.90
2023-04-18T02:59:03.833Z,8.00
2023-04-18T03:02:46.065Z,8.00
2023-04-18T03:06:28.061Z,8.10
2023-04-18T03:10:10.286Z,8.10
2023-04-18T03:13:52.111Z,8.10
2023-04-18T03:17:34.329Z,8.20
2023-04-18T03:21:16.292Z,8.20
2023-04-18T03:25:00.022Z,8.20
2023-04-18T03:28:41.914Z,8.30
2023-04-18T03:32:23.791Z,8.30
2023-04-18T03:36:06.294Z,8.30
2023-04-18T03:39:48.349Z,8.40
2023-04-18T03:43:30.236Z,8.40
2023-04-18T03:47:12.195Z,8.40
2023-04-18T03:50:54.022Z,8.40
2023-04-18T03:54:35.893Z,8.40
2023-04-18T03:58:18.138Z,8.40
2023-04-18T04:02:00.101Z,8.40
2023-04-18T04:05:42.137Z,8.40
2023-04-18T04:09:23.999Z,8.40
2023-04-18T04:13:05.911Z,8.40
2023-04-18T04:16:47.868Z,8.50
2023-04-18T04:20:29.736Z,8.40
2023-04-18T04:24:11.834Z,8.40
2023-04-18T04:27:54.539Z,8.40
2023-04-18T04:31:36.687Z,8.40
2023-04-18T04:35:18.870Z,8.40
2023-04-18T04:39:04.221Z,8.40
2023-04-18T04:42:47.270Z,8.40
2023-04-18T04:46:30.416Z,8.30
2023-04-18T04:50:15.725Z,8.30
2023-04-18T04:53:57.993Z,8.30
2023-04-18T04:57:39.957Z,8.30
2023-04-18T05:01:22.799Z,8.30
2023-04-18T05:05:05.077Z,8.30
2023-04-18T05:08:48.470Z,8.30
2023-04-18T05:12:30.412Z,8.30
2023-04-18T05:16:12.409Z,8.40
2023-04-18T05:19:54.333Z,8.40
2023-04-18T05:23:37.232Z,8.40
2023-04-18T05:27:19.289Z,8.40
2023-04-18T05:31:01.516Z,8.40
2023-04-18T05:34:43.507Z,8.50
2023-04-18T05:38:25.876Z,8.50
2023-04-18T05:42:07.971Z,8.50
2023-04-18T05:45:52.416Z,8.50
2023-04-18T05:49:34.608Z,8.60
2023-04-18T05:53:16.559Z,8.60
2023-04-18T05:56:58.522Z,8.60
2023-04-18T06:00:41.683Z,8.60
2023-04-18T06:04:23.766Z,8.70
2023-04-18T06:08:06.091Z,8.70
2023-04-18T06:11:47.978Z,8.70
2023-04-18T06:15:29.959Z,8.80
2023-04-18T06:19:14.394Z,8.80
2023-04-18T06:22:56.300Z,8.90
2023-04-18T06:26:38.187Z,9.00
2023-04-18T06:30:21.976Z,9.00
2023-04-18T06:34:04.109Z,9.10
2023-04-18T06:37:46.438Z,9.20
2023-04-18T06:41:28.329Z,9.20
2023-04-18T06:45:11.027Z,9.20
2023-04-18T06:48:52.958Z,9.30
2023-04-18T06:52:37.432Z,9.40
2023-04-18T06:56:20.641Z,9.50
2023-04-18T07:00:02.712Z,9.50
2023-04-18T07:03:44.808Z,9.50
2023-04-18T07:07:26.796Z,9.60
2023-04-18T07:11:08.696Z,9.60
2023-04-18T07:14:51.570Z,9.70
2023-04-18T07:18:37.978Z,9.70
2023-04-18T07:22:20.362Z,9.70
2023-04-18T07:26:03.214Z,9.80
2023-04-18T07:29:45.337Z,9.90
2023-04-18T07:33:28.106Z,10.00
2023-04-18T07:37:10.051Z,10.10
2023-04-18T07:40:59.767Z,10.30
2023-04-18T07:44:41.737Z,10.70
2023-04-18T07:48:25.178Z,11.10
2023-04-18T07:52:08.434Z,11.40
2023-04-18T07:55:50.987Z,11.50
2023-04-18T07:59:33.053Z,11.30
2023-04-18T08:03:16.332Z,11.10
2023-04-18T08:06:58.418Z,11.00
2023-04-18T08:10:40.347Z,11.00
2023-04-18T08:14:22.348Z,11.00
2023-04-18T08:18:04.361Z,11.00
2023-04-18T08:21:46.407Z,11.10
2023-04-18T08:25:28.367Z,11.10
2023-04-18T08:29:10.271Z,11.30
2023-04-18T08:32:52.316Z,11.50
2023-04-18T08:36:35.566Z,11.60
2023-04-18T08:40:18.652Z,11.60
2023-04-18T08:44:00.597Z,11.50
2023-04-18T08:47:42.881Z,11.50
2023-04-18T08:51:25.087Z,11.80
2023-04-18T08:55:07.628Z,12.10
2023-04-18T08:58:50.582Z,12.70
2023-04-18T09:02:45.036Z,13.60
2023-04-18T09:06:28.295Z,14.70
2023-04-18T09:10:10.863Z,15.90
2023-04-18T09:13:55.961Z,16.80
2023-04-18T09:17:43.755Z,17.00
2023-04-18T09:21:27.973Z,16.90
2023-04-18T09:25:09.928Z,16.70
2023-04-18T09:28:53.936Z,16.80
2023-04-18T09:32:36.072Z,16.70
2023-04-18T09:36:23.049Z,16.40
2023-04-18T09:40:18.699Z,16.00
2023-04-18T09:44:15.801Z,15.80
2023-04-18T09:47:57.955Z,15.40
2023-04-18T09:51:42.164Z,15.50
2023-04-18T09:55:24.160Z,16.30
2023-04-18T09:59:10.068Z,17.20
2023-04-18T10:03:09.816Z,17.20
2023-04-18T10:06:53.644Z,16.90
2023-04-18T10:10:38.525Z,17.00
2023-04-18T10:14:22.840Z,17.60
2023-04-18T10:18:15.197Z,18.20
2023-04-18T10:21:59.195Z,18.30
2023-04-18T10:25:41.331Z,18.60
2023-04-18T10:29:46.583Z,18.90
2023-04-18T10:33:41.012Z,19.40
2023-04-18T10:37:26.688Z,20.10
2023-04-18T10:41:16.911Z,20.30
2023-04-18T10:45:18.707Z,19.70
2023-04-18T10:49:27.318Z,19.40
2023-04-18T10:53:10.011Z,18.80
2023-04-18T10:56:56.725Z,18.80
2023-04-18T11:00:38.722Z,19.30
2023-04-18T11:04:20.886Z,19.80
2023-04-18T11:08:02.863Z,20.30
2023-04-18T11:11:44.770Z,20.90
2023-04-18T11:15:28.607Z,21.50
2023-04-18T11:19:23.365Z,21.80
2023-04-18T11:23:21.081Z,22.10
2023-04-18T11:27:04.628Z,21.80
2023-04-18T11:30:46.909Z,21.90
2023-04-18T11:34:32.599Z,22.00
2023-04-18T11:38:15.958Z,21.60
2023-04-18T11:41:59.540Z,21.60
2023-04-18T11:45:59.985Z,21.40
2023-04-18T11:49:42.228Z,21.60
2023-04-18T11:53:34.599Z,22.10
2023-04-18T11:57:27.606Z,22.60
2023-04-18T12:01:35.772Z,23.20
2023-04-18T12:05:32.305Z,23.00
2023-04-18T12:09:15.775Z,22.20
2023-04-18T12:12:59.772Z,21.60
2023-04-18T12:16:42.067Z,21.40
2023-04-18T12:20:25.133Z,21.00
2023-04-18T12:24:18.272Z,20.60
2023-04-18T12:28:18.622Z,20.50
2023-04-18T12:32:00.573Z,20.50
2023-04-18T12:35:42.800Z,20.40
2023-04-18T12:39:26.021Z,20.20
2023-04-18T12:43:08.318Z,20.10
2023-04-18T12:46:50.916Z,20.30
2023-04-18T12:50:33.147Z,20.70
2023-04-18T12:54:15.360Z,21.20
2023-04-18T12:57:58.204Z,21.50
2023-04-18T13:01:40.103Z,21.50
2023-04-18T13:05:24.756Z,21.30
2023-04-18T13:09:06.645Z,20.70
2023-04-18T13:12:50.465Z,20.10
2023-04-18T13:16:32.426Z,19.60
2023-04-18T13:20:15.118Z,19.20
2023-04-18T13:23:57.081Z,18.90
2023-04-18T13:27:41.778Z,18.80
2023-04-18T13:31:24.237Z,19.10
2023-04-18T13:35:10.430Z,19.60
2023-04-18T13:38:52.498Z,20.00
2023-04-18T13:42:35.847Z,20.20
2023-04-18T13:46:18.686Z,20.20
2023-04-18T13:50:00.931Z,20.10
2023-04-18T13:53:42.866Z,20.10
2023-04-18T13:57:24.822Z,20.00
2023-04-18T14:01:06.763Z,19.70
2023-04-18T14:04:48.872Z,19.30
2023-04-18T14:08:30.826Z,19.00
2023-04-18T14:12:12.794Z,18.90
2023-04-18T14:15:54.777Z,18.90
2023-04-18T14:19:39.798Z,19.00
2023-04-18T14:23:22.595Z,19.00
2023-04-18T14:27:04.923Z,18.60
2023-04-18T14:30:47.091Z,18.10
2023-04-18T14:34:31.067Z,17.90
2023-04-18T14:38:13.903Z,17.70
2023-04-18T14:41:55.960Z,17.70
2023-04-18T14:45:37.987Z,17.60
2023-04-18T14:49:19.908Z,17.60
2023-04-18T14:53:03.933Z,17.60
2023-04-18T14:56:45.837Z,17.60
2023-04-18T15:00:28.239Z,17.50
2023-04-18T15:04:10.303Z,17.40
2023-04-18T15:07:52.597Z,17.20
2023-04-18T15:11:34.522Z,17.00
2023-04-18T15:15:16.806Z,16.80
2023-04-18T15:19:00.435Z,16.70
2023-04-18T15:22:42.335Z,16.60
2023-04-18T15:26:24.347Z,16.50
2023-04-18T15:30:07.873Z,16.40
2023-04-18T15:33:49.780Z,16.30
2023-04-18T15:37:31.698Z,16.10
2023-04-18T15:41:13.590Z,16.00
2023-04-18T15:44:55.560Z,15.90
2023-04-18T15:48:37.719Z,15.80
2023-04-18T15:52:19.700Z,15.70
2023-04-18T15:56:01.958Z,15.60
2023-04-18T15:59:43.874Z,15.30
2023-04-18T16:03:26.188Z,15.10
2023-04-18T16:07:08.900Z,14.90
2023-04-18T16:10:53.225Z,14.60
2023-04-18T16:14:35.170Z,14.40
2023-04-18T16:18:17.106Z,14.30
2023-04-18T16:21:59.137Z,14.20
2023-04-18T16:25:41.074Z,14.20
2023-04-18T16:29:23.050Z,14.10
2023-04-18T16:33:05.408Z,14.00
2023-04-18T16:36:48.592Z,13.90
2023-04-18T16:40:34.952Z,13.90
2023-04-18T16:44:16.901Z,13.80
2023-04-18T16:47:58.842Z,13.70
2023-04-18T16:51:40.872Z,13.60
2023-04-18T16:55:22.851Z,13.60
2023-04-18T16:59:04.859Z,13.50
2023-04-18T17:02:47.493Z,13.50
2023-04-18T17:06:31.284Z,13.40
2023-04-18T17:10:13.523Z,13.40
2023-04-18T17:13:55.463Z,13.40
2023-04-18T17:17:37.407Z,13.30
2023-04-18T17:21:19.342Z,13.20
2023-04-18T17:25:01.997Z,13.10
2023-04-18T17:28:43.918Z,13.10
2023-04-18T17:32:25.862Z,13.00
2023-04-18T17:36:08.020Z,12.90
2023-04-18T17:39:50.162Z,12.90
2023-04-18T17:43:32.086Z,12.80
2023-04-18T17:47:13.980Z,12.80
2023-04-18T17:50:55.946Z,12.70
2023-04-18T17:54:37.889Z,12.70
2023-04-18T17:58:20.055Z,12.70
2023-04-18T18:02:02.832Z,12.60
2023-04-18T18:05:50.168Z,12.60
2023-04-18T18:09:32.113Z,12.50
2023-04-18T18:13:14.103Z,12.50
2023-04-18T18:16:56.131Z,12.40
2023-04-18T18:20:38.121Z,12.30
2023-04-18T18:24:20.108Z,12.30
2023-04-18T18:28:03.421Z,12.20
2023-04-18T18:31:45.444Z,12.20
2023-04-18T18:35:27.533Z,12.10
2023-04-18T18:39:09.469Z,12.10
2023-04-18T18:42:53.863Z,12.00
2023-04-18T18:46:36.244Z,11.90
2023-04-18T18:50:18.383Z,11.90
2023-04-18T18:54:00.273Z,11.80
2023-04-18T18:57:42.247Z,11.70
2023-04-18T19:01:24.250Z,11.70
2023-04-18T19:05:06.766Z,11.60
2023-04-18T19:08:48.647Z,11.60
2023-04-18T19:12:31.061Z,11.60
2023-04-18T19:16:13.215Z,11.50
2023-04-18T19:19:57.993Z,11.50
2023-04-18T19:23:41.858Z,11.40
2023-04-18T19:27:23.829Z,11.30
2023-04-18T19:31:06.005Z,11.10
2023-04-18T19:34:47.950Z,11.10
2023-04-18T19:38:29.874Z,11.00
2023-04-18T19:42:11.766Z,10.80
2023-04-18T19:45:55.265Z,10.60
2023-04-18T19:49:37.868Z,10.50
2023-04-18T19:53:20.608Z,10.40
2023-04-18T19:57:04.563Z,10.20
2023-04-18T20:00:46.527Z,10.10
2023-04-18T20:04:29.013Z,9.90
2023-04-18T20:08:11.120Z,9.80
2023-04-18T20:11:54.376Z,9.80
2023-04-18T20:15:36.748Z,9.70
2023-04-18T20:19:19.535Z,9.70
2023-04-18T20:23:02.468Z,9.60
2023-04-18T20:26:44.397Z,9.50
2023-04-18T20:30:26.484Z,9.50
2023-04-18T20:34:09.956Z,9.40
2023-04-18T20:37:51.829Z,9.30
2023-04-18T20:41:34.944Z,9.20
2023-04-18T20:45:16.863Z,9.20
2023-04-18T20:48:59.430Z,9.10
2023-04-18T20:52:42.933Z,9.00
2023-04-18T20:56:25.019Z,8.90
2023-04-18T21:00:08.005Z,8.80
2023-04-18T21:03:50.118Z,8.70
2023-04-18T21:07:32.416Z,8.60
2023-04-18T21:11:14.530Z,8.50
2023-04-18T21:14:56.519Z,8.40
2023-04-18T21:18:39.484Z,8.30
2023-04-18T21:22:21.392Z,8.20
2023-04-18T21:26:03.323Z,8.00
2023-04-18T21:29:45.287Z,7.90
2023-04-18T21:33:27.183Z,7.90
2023-04-18T21:37:09.105Z,7.80
2023-04-18T21:40:50.991Z,7.70
2023-04-18T21:44:32.872Z,7.70
2023-04-18T21:48:15.506Z,7.60
2023-04-18T21:51:57.385Z,7.60
2023-04-18T21:55:39.271Z,7.50
2023-04-18T21:59:21.184Z,7.50
2023-04-18T22:03:03.315Z,7.40
2023-04-18T22:06:46.134Z,7.40
2023-04-18T22:10:28.104Z,7.30
2023-04-18T22:14:10.013Z,7.30
2023-04-18T22:17:52.110Z,7.20
2023-04-18T22:21:34.025Z,7.20
2023-04-18T22:25:16.013Z,7.10
2023-04-18T22:28:57.894Z,7.00
2023-04-18T22:32:40.008Z,6.90
2023-04-18T22:36:21.889Z,6.80
2023-04-18T22:40:06.872Z,6.80
2023-04-18T22:43:48.758Z,6.70
2023-04-18T22:47:30.666Z,6.70
2023-04-18T22:51:14.279Z,6.60
2023-04-18T22:54:56.172Z,6.50
2023-04-18T22:58:38.109Z,6.50
2023-04-18T23:02:20.128Z,6.40
2023-04-18T23:06:02.106Z,6.40
2023-04-18T23:09:44.046Z,6.30
2023-04-18T23:13:25.990Z,6.20
2023-04-18T23:17:08.202Z,6.20
2023-04-18T23:20:50.148Z,6.10
2023-04-18T23:24:32.073Z,6.00
2023-04-18T23:28:13.986Z,6.00
2023-04-18T23:31:56.184Z,5.90
2023-04-18T23:35:38.099Z,5.90
2023-04-18T23:39:21.666Z,5.90
2023-04-18T23:43:03.596Z,5.80
2023-04-18T23:46:45.541Z,5.80
2023-04-18T23:50:27.454Z,5.80
2023-04-18T23:54:09.403Z,5.80
2023-04-18T23:57:51.365Z,5.80
